This is the latest recevied weather packets stored in our database for station/object OK1HOL-13. If no packets are shown the sender has not sent any weather packets the latest 10 day(s).
| Time | Temp. | Humidity | Pressure | Rain* | Wind** | Luminosity | Snow |
|---|---|---|---|---|---|---|---|
| 1778157966 | 18.33° C | 43% | 1012.4 hPa | - | - | 220 W/m² | - |
| 1778157366 | 17.78° C | 44% | 1012.5 hPa | - | - | 231 W/m² | - |
| 1778156766 | 18.33° C | 43% | 1012.5 hPa | - | - | 431 W/m² | - |
| 1778156166 | 17.22° C | 46% | 1012.5 hPa | - | - | 280 W/m² | - |
| 1778155566 | 16.67° C | 49% | 1012.3 hPa | - | - | 166 W/m² | - |
| 1778154966 | 16.11° C | 48% | 1012.4 hPa | - | - | 181 W/m² | - |
| 1778154366 | 16.11° C | 49% | 1012.5 hPa | - | - | 114 W/m² | - |
| 1778153766 | 16.67° C | 47% | 1012.3 hPa | - | - | 198 W/m² | - |
| 1778153166 | 16.67° C | 47% | 1012.2 hPa | - | - | 154 W/m² | - |
| 1778152566 | 16.67° C | 47% | 1012.4 hPa | - | - | 184 W/m² | - |
| 1778151966 | 16.67° C | 49% | 1012.3 hPa | - | - | 138 W/m² | - |
| 1778151366 | 16.67° C | 48% | 1012.2 hPa | - | - | 108 W/m² | - |
| 1778150766 | 16.67° C | 49% | 1012.1 hPa | - | - | 143 W/m² | - |
| 1778150166 | 16.67° C | 51% | 1012 hPa | - | - | 159 W/m² | - |
| 1778149566 | 16.67° C | 49% | 1012 hPa | - | - | 191 W/m² | - |
| 1778148966 | 16.67° C | 50% | 1011.9 hPa | - | - | 309 W/m² | - |
| 1778148366 | 16.67° C | 51% | 1011.8 hPa | - | - | 196 W/m² | - |
| 1778147766 | 16.67° C | 52% | 1011.8 hPa | - | - | 154 W/m² | - |
| 1778147166 | 16.67° C | 51% | 1011.7 hPa | - | - | 186 W/m² | - |
| 1778146566 | 16.67° C | 52% | 1011.5 hPa | - | - | 431 W/m² | - |
| 1778145966 | 16.11° C | 55% | 1011.5 hPa | - | - | 126 W/m² | - |
| 1778145366 | 16.11° C | 55% | 1011.5 hPa | - | - | 72 W/m² | - |
| 1778144766 | 16.67° C | 54% | 1011.3 hPa | - | - | 74 W/m² | - |
| 1778144166 | 16.67° C | 54% | 1011.4 hPa | - | - | 422 W/m² | - |
| 1778143566 | 16.11° C | 56% | 1011.3 hPa | - | - | 253 W/m² | - |
* Rain since midnight (hover to see other rain measurements)
** Current wind speed in m/s (hover to see current wind gust speed)